Terminal Aerodrome Forecast
Issued by NWS Tulsa, OK

Home | Current Version | Previous Version | Text Only | Print | Product List | Glossary On
Versions: 1 2 3 4 5 6 7 8 9 10 11 12 13 14
050
FTUS44 KTSA 052325
TAFTUL
TAF
KTUL 052325Z 0600/0624 17006KT P6SM BKN120
     FM061300 32004KT P6SM SCT150
     FM062000 25007KT P6SM SKC=

USA.gov is the U.S. government's official web portal to all federal, state and local government web resources and services.